sensor_id;sensor_type;location;lat;lon;timestamp;pressure;altitude;pressure_sealevel;temperature;humidity
33454;BME280;39400;49.744;7.012;2023-04-28T00:01:15;95675.94;;;11.08;100.00
33454;BME280;39400;49.744;7.012;2023-04-28T00:03:40;95674.28;;;11.21;100.00
33454;BME280;39400;49.744;7.012;2023-04-28T00:06:06;95672.00;;;11.12;100.00
33454;BME280;39400;49.744;7.012;2023-04-28T00:08:31;95666.59;;;10.94;100.00
33454;BME280;39400;49.744;7.012;2023-04-28T00:10:56;95658.34;;;10.94;100.00
33454;BME280;39400;49.744;7.012;2023-04-28T00:13:22;95661.13;;;10.87;100.00
33454;BME280;39400;49.744;7.012;2023-04-28T00:15:51;95644.66;;;10.80;100.00
33454;BME280;39400;49.744;7.012;2023-04-28T00:18:18;95643.88;;;10.83;100.00
33454;BME280;39400;49.744;7.012;2023-04-28T00:20:43;95637.63;;;10.79;100.00
33454;BME280;39400;49.744;7.012;2023-04-28T00:23:09;95636.09;;;10.71;100.00
33454;BME280;39400;49.744;7.012;2023-04-28T00:25:34;95637.63;;;10.76;100.00
33454;BME280;39400;49.744;7.012;2023-04-28T00:27:59;95634.16;;;10.68;100.00
33454;BME280;39400;49.744;7.012;2023-04-28T00:30:25;95622.75;;;10.69;100.00
33454;BME280;39400;49.744;7.012;2023-04-28T00:32:50;95608.69;;;10.57;100.00
33454;BME280;39400;49.744;7.012;2023-04-28T00:35:16;95619.22;;;10.69;100.00
33454;BME280;39400;49.744;7.012;2023-04-28T00:37:41;95620.38;;;10.71;100.00
33454;BME280;39400;49.744;7.012;2023-04-28T00:40:07;95625.84;;;10.75;100.00
33454;BME280;39400;49.744;7.012;2023-04-28T00:42:32;95625.84;;;10.75;100.00
33454;BME280;39400;49.744;7.012;2023-04-28T00:44:57;95631.34;;;10.75;100.00
33454;BME280;39400;49.744;7.012;2023-04-28T00:47:24;95637.63;;;10.79;100.00
33454;BME280;39400;49.744;7.012;2023-04-28T00:49:50;95635.97;;;10.92;100.00
33454;BME280;39400;49.744;7.012;2023-04-28T00:52:15;95634.81;;;10.86;100.00
33454;BME280;39400;49.744;7.012;2023-04-28T00:54:41;95633.59;;;10.94;100.00
33454;BME280;39400;49.744;7.012;2023-04-28T00:57:06;95628.09;;;10.94;100.00
33454;BME280;39400;49.744;7.012;2023-04-28T00:59:31;95619.47;;;10.92;100.00
33454;BME280;39400;49.744;7.012;2023-04-28T01:01:58;95619.84;;;10.94;100.00
33454;BME280;39400;49.744;7.012;2023-04-28T01:04:25;95617.06;;;10.98;100.00
33454;BME280;39400;49.744;7.012;2023-04-28T01:06:51;95615.47;;;11.01;100.00
33454;BME280;39400;49.744;7.012;2023-04-28T01:09:17;95605.19;;;11.05;100.00
33454;BME280;39400;49.744;7.012;2023-04-28T01:11:43;95593.38;;;11.08;100.00
33454;BME280;39400;49.744;7.012;2023-04-28T01:14:10;95584.84;;;10.99;100.00
33454;BME280;39400;49.744;7.012;2023-04-28T01:16:38;95574.91;;;11.08;100.00
33454;BME280;39400;49.744;7.012;2023-04-28T01:19:07;95570.56;;;11.11;100.00
33454;BME280;39400;49.744;7.012;2023-04-28T01:21:35;95586.69;;;11.12;100.00
33454;BME280;39400;49.744;7.012;2023-04-28T01:24:16;95584.72;;;11.13;100.00
33454;BME280;39400;49.744;7.012;2023-04-28T01:26:42;95587.59;;;10.99;100.00
33454;BME280;39400;49.744;7.012;2023-04-28T01:29:07;95585.63;;;10.99;100.00
33454;BME280;39400;49.744;7.012;2023-04-28T01:31:32;95595.84;;;10.99;100.00
33454;BME280;39400;49.744;7.012;2023-04-28T01:33:58;95606.09;;;10.91;100.00
33454;BME280;39400;49.744;7.012;2023-04-28T01:36:24;95597.06;;;10.90;100.00
33454;BME280;39400;49.744;7.012;2023-04-28T01:38:49;95606.91;;;10.91;100.00
33454;BME280;39400;49.744;7.012;2023-04-28T01:41:15;95611.66;;;10.80;100.00
33454;BME280;39400;49.744;7.012;2023-04-28T01:43:40;95594.88;;;10.67;100.00
33454;BME280;39400;49.744;7.012;2023-04-28T01:46:06;95596.84;;;10.67;100.00
33454;BME280;39400;49.744;7.012;2023-04-28T01:48:31;95593.72;;;10.65;100.00
33454;BME280;39400;49.744;7.012;2023-04-28T01:50:56;95603.16;;;10.64;100.00
33454;BME280;39400;49.744;7.012;2023-04-28T01:53:22;95604.00;;;10.54;100.00
33454;BME280;39400;49.744;7.012;2023-04-28T01:55:47;95598.88;;;10.56;100.00
33454;BME280;39400;49.744;7.012;2023-04-28T01:58:14;95593.47;;;10.41;100.00
33454;BME280;39400;49.744;7.012;2023-04-28T02:00:39;95596.63;;;10.36;100.00
33454;BME280;39400;49.744;7.012;2023-04-28T02:03:05;95587.19;;;10.41;100.00
33454;BME280;39400;49.744;7.012;2023-04-28T02:05:33;95574.25;;;10.34;100.00
33454;BME280;39400;49.744;7.012;2023-04-28T02:07:58;95562.50;;;10.34;100.00
33454;BME280;39400;49.744;7.012;2023-04-28T02:10:24;95568.75;;;10.38;100.00
33454;BME280;39400;49.744;7.012;2023-04-28T02:12:49;95566.00;;;10.34;100.00
33454;BME280;39400;49.744;7.012;2023-04-28T02:15:15;95557.00;;;10.30;100.00
33454;BME280;39400;49.744;7.012;2023-04-28T02:17:40;95545.94;;;10.44;100.00
33454;BME280;39400;49.744;7.012;2023-04-28T02:20:06;95556.22;;;10.33;100.00
33454;BME280;39400;49.744;7.012;2023-04-28T02:22:32;95547.47;;;10.45;100.00
33454;BME280;39400;49.744;7.012;2023-04-28T02:24:57;95535.31;;;10.46;100.00
33454;BME280;39400;49.744;7.012;2023-04-28T02:27:23;95526.31;;;10.39;100.00
33454;BME280;39400;49.744;7.012;2023-04-28T02:29:48;95526.63;;;10.52;100.00
33454;BME280;39400;49.744;7.012;2023-04-28T02:32:13;95526.69;;;10.44;100.00
33454;BME280;39400;49.744;7.012;2023-04-28T02:34:39;95536.94;;;10.40;100.00
33454;BME280;39400;49.744;7.012;2023-04-28T02:37:06;95539.69;;;10.40;100.00
33454;BME280;39400;49.744;7.012;2023-04-28T02:39:31;95537.31;;;10.39;100.00
33454;BME280;39400;49.744;7.012;2023-04-28T02:41:57;95540.13;;;10.28;100.00
33454;BME280;39400;49.744;7.012;2023-04-28T02:44:22;95542.88;;;10.28;100.00
33454;BME280;39400;49.744;7.012;2023-04-28T02:46:48;95542.88;;;10.28;100.00
33454;BME280;39400;49.744;7.012;2023-04-28T02:49:13;95537.38;;;10.32;100.00
33454;BME280;39400;49.744;7.012;2023-04-28T02:51:39;95524.78;;;10.34;100.00
33454;BME280;39400;49.744;7.012;2023-04-28T02:54:04;95525.56;;;10.35;100.00
33454;BME280;39400;49.744;7.012;2023-04-28T02:56:30;95525.97;;;10.33;100.00
33454;BME280;39400;49.744;7.012;2023-04-28T02:58:56;95512.28;;;10.26;100.00
33454;BME280;39400;49.744;7.012;2023-04-28T03:01:22;95507.56;;;10.27;100.00
33454;BME280;39400;49.744;7.012;2023-04-28T03:03:47;95504.81;;;10.30;100.00
33454;BME280;39400;49.744;7.012;2023-04-28T03:06:12;95509.94;;;10.17;100.00
33454;BME280;39400;49.744;7.012;2023-04-28T03:08:38;95497.75;;;10.29;100.00
33454;BME280;39400;49.744;7.012;2023-04-28T03:11:03;95498.91;;;10.24;100.00
33454;BME280;39400;49.744;7.012;2023-04-28T03:13:28;95494.19;;;10.25;100.00
33454;BME280;39400;49.744;7.012;2023-04-28T03:15:54;95484.75;;;10.37;100.00
33454;BME280;39400;49.744;7.012;2023-04-28T03:18:19;95481.63;;;10.31;100.00
33454;BME280;39400;49.744;7.012;2023-04-28T03:20:44;95480.13;;;10.19;100.00
33454;BME280;39400;49.744;7.012;2023-04-28T03:23:10;95479.31;;;10.26;100.00
33454;BME280;39400;49.744;7.012;2023-04-28T03:25:35;95482.44;;;10.21;100.00
33454;BME280;39400;49.744;7.012;2023-04-28T03:28:01;95483.66;;;10.20;100.00
33454;BME280;39400;49.744;7.012;2023-04-28T03:30:26;95472.25;;;10.18;100.00
33454;BME280;39400;49.744;7.012;2023-04-28T03:32:51;95469.91;;;10.20;100.00
33454;BME280;39400;49.744;7.012;2023-04-28T03:35:17;95470.31;;;10.22;100.00
33454;BME280;39400;49.744;7.012;2023-04-28T03:37:43;95476.13;;;10.31;100.00
33454;BME280;39400;49.744;7.012;2023-04-28T03:40:08;95473.75;;;10.37;100.00
33454;BME280;39400;49.744;7.012;2023-04-28T03:42:54;95477.72;;;10.32;100.00
33454;BME280;39400;49.744;7.012;2023-04-28T03:45:25;95472.16;;;10.39;100.00
33454;BME280;39400;49.744;7.012;2023-04-28T03:47:51;95465.84;;;10.42;100.00
33454;BME280;39400;49.744;7.012;2023-04-28T03:50:16;95461.88;;;10.51;100.00
33454;BME280;39400;49.744;7.012;2023-04-28T03:52:42;95458.66;;;10.56;100.00
33454;BME280;39400;49.744;7.012;2023-04-28T03:55:07;95460.25;;;10.57;100.00
33454;BME280;39400;49.744;7.012;2023-04-28T03:57:33;95460.19;;;10.64;100.00
33454;BME280;39400;49.744;7.012;2023-04-28T03:59:58;95464.81;;;10.74;100.00
33454;BME280;39400;49.744;7.012;2023-04-28T04:02:24;95457.38;;;10.71;100.00
33454;BME280;39400;49.744;7.012;2023-04-28T04:04:49;95468.72;;;10.73;100.00
33454;BME280;39400;49.744;7.012;2023-04-28T04:07:15;95467.16;;;10.76;100.00
33454;BME280;39400;49.744;7.012;2023-04-28T04:09:40;95462.56;;;10.62;100.00
33454;BME280;39400;49.744;7.012;2023-04-28T04:12:06;95468.06;;;10.62;100.00
33454;BME280;39400;49.744;7.012;2023-04-28T04:14:31;95458.59;;;10.63;100.00
33454;BME280;39400;49.744;7.012;2023-04-28T04:16:57;95458.19;;;10.68;100.00
33454;BME280;39400;49.744;7.012;2023-04-28T04:19:22;95459.38;;;10.67;100.00
33454;BME280;39400;49.744;7.012;2023-04-28T04:21:48;95452.41;;;10.55;100.00
33454;BME280;39400;49.744;7.012;2023-04-28T04:24:14;95457.88;;;10.55;100.00
33454;BME280;39400;49.744;7.012;2023-04-28T04:26:39;95446.88;;;10.59;100.00
33454;BME280;39400;49.744;7.012;2023-04-28T04:29:21;95446.50;;;10.57;100.00
33454;BME280;39400;49.744;7.012;2023-04-28T04:31:46;95437.13;;;10.51;100.00
33454;BME280;39400;49.744;7.012;2023-04-28T04:34:12;95441.44;;;10.52;100.00
33454;BME280;39400;49.744;7.012;2023-04-28T04:36:37;95448.41;;;10.63;100.00
33454;BME280;39400;49.744;7.012;2023-04-28T04:39:03;95446.06;;;10.62;100.00
33454;BME280;39400;49.744;7.012;2023-04-28T04:41:28;95456.22;;;10.68;100.00
33454;BME280;39400;49.744;7.012;2023-04-28T04:44:11;95450.66;;;10.76;100.00
33454;BME280;39400;49.744;7.012;2023-04-28T04:46:41;95446.06;;;10.62;100.00
33454;BME280;39400;49.744;7.012;2023-04-28T04:49:06;95461.69;;;10.72;100.00
33454;BME280;39400;49.744;7.012;2023-04-28T04:51:32;95464.47;;;10.68;100.00
33454;BME280;39400;49.744;7.012;2023-04-28T04:53:57;95449.13;;;10.71;100.00
33454;BME280;39400;49.744;7.012;2023-04-28T04:56:22;95459.72;;;10.73;100.00
33454;BME280;39400;49.744;7.012;2023-04-28T04:58:51;95456.84;;;10.83;100.00
33454;BME280;39400;49.744;7.012;2023-04-28T05:01:36;95463.94;;;10.84;100.00
33454;BME280;39400;49.744;7.012;2023-04-28T05:04:02;95464.72;;;10.85;100.00
33454;BME280;39400;49.744;7.012;2023-04-28T05:06:27;95474.94;;;10.84;100.00
33454;BME280;39400;49.744;7.012;2023-04-28T05:08:53;95473.06;;;10.74;100.00
33454;BME280;39400;49.744;7.012;2023-04-28T05:11:18;95478.59;;;10.70;100.00
33454;BME280;39400;49.744;7.012;2023-04-28T05:13:45;95480.41;;;10.88;100.00
33454;BME280;39400;49.744;7.012;2023-04-28T05:16:11;95481.59;;;10.83;100.00
33454;BME280;39400;49.744;7.012;2023-04-28T05:18:52;95474.16;;;10.80;100.00
33454;BME280;39400;49.744;7.012;2023-04-28T05:21:17;95467.50;;;10.81;100.00
33454;BME280;39400;49.744;7.012;2023-04-28T05:23:43;95479.66;;;10.80;100.00
33454;BME280;39400;49.744;7.012;2023-04-28T05:26:09;95487.59;;;10.75;100.00
33454;BME280;39400;49.744;7.012;2023-04-28T05:28:34;95494.69;;;10.72;100.00
33454;BME280;39400;49.744;7.012;2023-04-28T05:31:00;95517.38;;;10.80;100.00
33454;BME280;39400;49.744;7.012;2023-04-28T05:33:25;95486.03;;;10.70;100.00
33454;BME280;39400;49.744;7.012;2023-04-28T05:35:51;95479.56;;;10.50;100.00
33454;BME280;39400;49.744;7.012;2023-04-28T05:38:17;95492.91;;;10.47;100.00
33454;BME280;39400;49.744;7.012;2023-04-28T05:40:43;95504.31;;;10.42;100.00
33454;BME280;39400;49.744;7.012;2023-04-28T05:43:10;95500.28;;;10.58;100.00
33454;BME280;39400;49.744;7.012;2023-04-28T05:45:37;95497.94;;;10.56;100.00
33454;BME280;39400;49.744;7.012;2023-04-28T05:48:04;95509.69;;;10.60;100.00
33454;BME280;39400;49.744;7.012;2023-04-28T05:50:30;95507.41;;;10.52;100.00
33454;BME280;39400;49.744;7.012;2023-04-28T05:52:55;95504.28;;;10.50;100.00
33454;BME280;39400;49.744;7.012;2023-04-28T05:55:21;95504.59;;;10.59;100.00
33454;BME280;39400;49.744;7.012;2023-04-28T05:57:46;95498.56;;;10.78;100.00
33454;BME280;39400;49.744;7.012;2023-04-28T06:00:12;95496.16;;;10.80;100.00
33454;BME280;39400;49.744;7.012;2023-04-28T06:02:38;95502.44;;;10.84;100.00
33454;BME280;39400;49.744;7.012;2023-04-28T06:05:03;95482.81;;;10.82;100.00
33454;BME280;39400;49.744;7.012;2023-04-28T06:07:29;95490.25;;;10.85;100.00
33454;BME280;39400;49.744;7.012;2023-04-28T06:09:55;95499.25;;;10.89;100.00
33454;BME280;39400;49.744;7.012;2023-04-28T06:12:20;95502.25;;;11.06;100.00
33454;BME280;39400;49.744;7.012;2023-04-28T06:14:46;95498.38;;;11.00;100.00
33454;BME280;39400;49.744;7.012;2023-04-28T06:17:11;95495.22;;;10.98;100.00
33454;BME280;39400;49.744;7.012;2023-04-28T06:19:36;95517.94;;;11.09;100.00
33454;BME280;39400;49.744;7.012;2023-04-28T06:22:02;95503.38;;;11.12;100.00
33454;BME280;39400;49.744;7.012;2023-04-28T06:24:28;95514.00;;;11.10;100.00
33454;BME280;39400;49.744;7.012;2023-04-28T06:26:55;95517.16;;;11.05;100.00
33454;BME280;39400;49.744;7.012;2023-04-28T06:29:21;95524.28;;;11.02;100.00
33454;BME280;39400;49.744;7.012;2023-04-28T06:31:46;95519.56;;;11.03;100.00
33454;BME280;39400;49.744;7.012;2023-04-28T06:34:12;95511.00;;;10.93;100.00
33454;BME280;39400;49.744;7.012;2023-04-28T06:36:37;95493.75;;;10.89;100.00
33454;BME280;39400;49.744;7.012;2023-04-28T06:39:03;95497.09;;;11.08;100.00
33454;BME280;39400;49.744;7.012;2023-04-28T06:41:28;95501.41;;;11.12;100.00
33454;BME280;39400;49.744;7.012;2023-04-28T06:43:55;95505.97;;;11.26;100.00
33454;BME280;39400;49.744;7.012;2023-04-28T06:46:24;95497.22;;;11.35;100.00
33454;BME280;39400;49.744;7.012;2023-04-28T06:48:49;95498.69;;;11.47;100.00
33454;BME280;39400;49.744;7.012;2023-04-28T06:51:15;95501.34;;;11.54;100.00
33454;BME280;39400;49.744;7.012;2023-04-28T06:53:40;95501.53;;;11.70;100.00
33454;BME280;39400;49.744;7.012;2023-04-28T06:56:06;95496.69;;;11.81;100.00
33454;BME280;39400;49.744;7.012;2023-04-28T06:58:32;95486.34;;;11.93;100.00
33454;BME280;39400;49.744;7.012;2023-04-28T07:00:57;95482.91;;;12.12;100.00
33454;BME280;39400;49.744;7.012;2023-04-28T07:03:22;95485.50;;;12.26;100.00
33454;BME280;39400;49.744;7.012;2023-04-28T07:05:48;95485.38;;;12.33;100.00
33454;BME280;39400;49.744;7.012;2023-04-28T07:08:13;95493.19;;;12.38;100.00
33454;BME280;39400;49.744;7.012;2023-04-28T07:10:38;95485.56;;;12.46;100.00
33454;BME280;39400;49.744;7.012;2023-04-28T07:13:03;95486.28;;;12.54;100.00
33454;BME280;39400;49.744;7.012;2023-04-28T07:15:29;95483.97;;;12.49;100.00
33454;BME280;39400;49.744;7.012;2023-04-28T07:17:54;95485.13;;;12.51;100.00
33454;BME280;39400;49.744;7.012;2023-04-28T07:20:19;95487.44;;;12.53;100.00
33454;BME280;39400;49.744;7.012;2023-04-28T07:22:45;95484.56;;;12.60;100.00
33454;BME280;39400;49.744;7.012;2023-04-28T07:25:10;95489.50;;;12.72;100.00
33454;BME280;39400;49.744;7.012;2023-04-28T07:27:35;95486.81;;;12.69;100.00
33454;BME280;39400;49.744;7.012;2023-04-28T07:30:01;95495.69;;;12.80;100.00
33454;BME280;39400;49.744;7.012;2023-04-28T07:32:26;95497.56;;;12.87;100.00
33454;BME280;39400;49.744;7.012;2023-04-28T07:34:51;95494.53;;;12.77;100.00
33454;BME280;39400;49.744;7.012;2023-04-28T07:37:17;95499.00;;;12.71;100.00
33454;BME280;39400;49.744;7.012;2023-04-28T07:39:42;95499.72;;;12.75;100.00
33454;BME280;39400;49.744;7.012;2023-04-28T07:42:08;95499.47;;;12.66;100.00
33454;BME280;39400;49.744;7.012;2023-04-28T07:44:34;95496.25;;;12.71;100.00
33454;BME280;39400;49.744;7.012;2023-04-28T07:46:59;95498.50;;;12.76;100.00
33454;BME280;39400;49.744;7.012;2023-04-28T07:49:28;95505.47;;;12.84;100.00
33454;BME280;39400;49.744;7.012;2023-04-28T07:51:54;95504.84;;;12.73;100.00
33454;BME280;39400;49.744;7.012;2023-04-28T07:54:19;95510.13;;;12.88;100.00
33454;BME280;39400;49.744;7.012;2023-04-28T07:56:44;95503.97;;;12.80;100.00
33454;BME280;39400;49.744;7.012;2023-04-28T07:59:10;95503.31;;;12.72;100.00
33454;BME280;39400;49.744;7.012;2023-04-28T08:01:35;95511.94;;;12.74;100.00
33454;BME280;39400;49.744;7.012;2023-04-28T08:04:00;95513.63;;;12.68;100.00
33454;BME280;39400;49.744;7.012;2023-04-28T08:06:26;95514.16;;;12.83;100.00
33454;BME280;39400;49.744;7.012;2023-04-28T08:08:51;95524.31;;;12.90;100.00
33454;BME280;39400;49.744;7.012;2023-04-28T08:11:17;95510.13;;;12.88;100.00
33454;BME280;39400;49.744;7.012;2023-04-28T08:13:43;95519.38;;;13.01;100.00
33454;BME280;39400;49.744;7.012;2023-04-28T08:16:08;95518.81;;;13.13;100.00
33454;BME280;39400;49.744;7.012;2023-04-28T08:18:34;95522.88;;;13.28;100.00
33454;BME280;39400;49.744;7.012;2023-04-28T08:20:59;95522.75;;;13.36;100.00
33454;BME280;39400;49.744;7.012;2023-04-28T08:23:24;95516.31;;;13.42;100.00
33454;BME280;39400;49.744;7.012;2023-04-28T08:25:50;95522.03;;;13.55;100.00
33454;BME280;39400;49.744;7.012;2023-04-28T08:28:15;95527.25;;;13.49;100.00
33454;BME280;39400;49.744;7.012;2023-04-28T08:30:40;95533.81;;;13.36;100.00
33454;BME280;39400;49.744;7.012;2023-04-28T08:33:05;95537.00;;;13.34;100.00
33454;BME280;39400;49.744;7.012;2023-04-28T08:35:31;95544.84;;;13.36;100.00
33454;BME280;39400;49.744;7.012;2023-04-28T08:37:56;95541.09;;;13.22;100.00
33454;BME280;39400;49.744;7.012;2023-04-28T08:40:22;95538.31;;;13.26;100.00
33454;BME280;39400;49.744;7.012;2023-04-28T08:42:47;95534.09;;;13.18;100.00
33454;BME280;39400;49.744;7.012;2023-04-28T08:45:13;95540.22;;;13.29;100.00
33454;BME280;39400;49.744;7.012;2023-04-28T08:47:39;95546.13;;;13.31;100.00
33454;BME280;39400;49.744;7.012;2023-04-28T08:50:06;95540.75;;;13.44;100.00
33454;BME280;39400;49.744;7.012;2023-04-28T08:52:32;95542.91;;;13.56;100.00
33454;BME280;39400;49.744;7.012;2023-04-28T08:54:59;95540.31;;;13.69;100.00
33454;BME280;39400;49.744;7.012;2023-04-28T08:57:26;95550.56;;;14.08;100.00
33454;BME280;39400;49.744;7.012;2023-04-28T08:59:52;95543.34;;;14.14;100.00
33454;BME280;39400;49.744;7.012;2023-04-28T09:02:18;95551.56;;;14.18;100.00
33454;BME280;39400;49.744;7.012;2023-04-28T09:04:46;95545.13;;;14.41;100.00
33454;BME280;39400;49.744;7.012;2023-04-28T09:07:11;95544.34;;;14.40;100.00
33454;BME280;39400;49.744;7.012;2023-04-28T09:09:36;95547.31;;;14.49;100.00
33454;BME280;39400;49.744;7.012;2023-04-28T09:12:02;95541.88;;;14.46;100.00
33454;BME280;39400;49.744;7.012;2023-04-28T09:14:29;95543.94;;;14.62;100.00
33454;BME280;39400;49.744;7.012;2023-04-28T09:16:55;95542.34;;;14.61;100.00
33454;BME280;39400;49.744;7.012;2023-04-28T09:19:20;95542.19;;;14.52;100.00
33454;BME280;39400;49.744;7.012;2023-04-28T09:21:51;95546.72;;;14.42;100.00
33454;BME280;39400;49.744;7.012;2023-04-28T09:26:51;95547.78;;;14.28;100.00
33454;BME280;39400;49.744;7.012;2023-04-28T09:29:16;95543.97;;;14.22;100.00
33454;BME280;39400;49.744;7.012;2023-04-28T09:31:42;95546.72;;;14.22;100.00
33454;BME280;39400;49.744;7.012;2023-04-28T09:34:07;95547.94;;;14.21;100.00
33454;BME280;39400;49.744;7.012;2023-04-28T09:36:32;95552.78;;;13.97;100.00
33454;BME280;39400;49.744;7.012;2023-04-28T09:38:58;95559.22;;;13.90;100.00
33454;BME280;39400;49.744;7.012;2023-04-28T09:41:37;95562.91;;;13.84;100.00
33454;BME280;39400;49.744;7.012;2023-04-28T09:44:13;95563.88;;;13.73;100.00
33454;BME280;39400;49.744;7.012;2023-04-28T09:46:39;95552.97;;;13.66;100.00
33454;BME280;39400;49.744;7.012;2023-04-28T09:49:05;95547.44;;;13.66;100.00
33454;BME280;39400;49.744;7.012;2023-04-28T09:51:30;95551.84;;;13.84;100.00
33454;BME280;39400;49.744;7.012;2023-04-28T09:53:58;95558.59;;;13.83;100.00
33454;BME280;39400;49.744;7.012;2023-04-28T09:56:26;95559.91;;;13.74;100.00
33454;BME280;39400;49.744;7.012;2023-04-28T09:58:52;95559.34;;;13.63;100.00
33454;BME280;39400;49.744;7.012;2023-04-28T10:01:18;95572.69;;;13.68;100.00
33454;BME280;39400;49.744;7.012;2023-04-28T10:03:44;95575.78;;;13.70;100.00
33454;BME280;39400;49.744;7.012;2023-04-28T10:06:10;95563.19;;;13.69;100.00
33454;BME280;39400;49.744;7.012;2023-04-28T10:08:35;95560.28;;;13.76;100.00
33454;BME280;39400;49.744;7.012;2023-04-28T10:11:01;95559.66;;;13.69;100.00
33454;BME280;39400;49.744;7.012;2023-04-28T10:13:27;95577.00;;;13.69;100.00
33454;BME280;39400;49.744;7.012;2023-04-28T10:15:52;95571.34;;;13.76;100.00
33454;BME280;39400;49.744;7.012;2023-04-28T10:18:18;95557.84;;;13.78;100.00
33454;BME280;39400;49.744;7.012;2023-04-28T10:20:49;95563.75;;;13.80;100.00
33454;BME280;39400;49.744;7.012;2023-04-28T10:26:16;95561.13;;;13.73;100.00
33454;BME280;39400;49.744;7.012;2023-04-28T10:28:46;95567.72;;;13.79;100.00
33454;BME280;39400;49.744;7.012;2023-04-28T10:31:12;95558.38;;;13.73;100.00
33454;BME280;39400;49.744;7.012;2023-04-28T10:33:39;95563.19;;;13.69;100.00
33454;BME280;39400;49.744;7.012;2023-04-28T10:36:05;95562.13;;;13.83;100.00
33454;BME280;39400;49.744;7.012;2023-04-28T10:38:30;95565.31;;;13.82;100.00
33454;BME280;39400;49.744;7.012;2023-04-28T10:40:56;95563.88;;;13.73;100.00
33454;BME280;39400;49.744;7.012;2023-04-28T10:48:22;95549.03;;;14.07;100.00
33454;BME280;39400;49.744;7.012;2023-04-28T10:56:19;95563.91;;;14.13;100.00
33454;BME280;39400;49.744;7.012;2023-04-28T10:58:46;95552.28;;;14.02;100.00
33454;BME280;39400;49.744;7.012;2023-04-28T11:08:56;95556.88;;;14.09;100.00
33454;BME280;39400;49.744;7.012;2023-04-28T11:11:25;95545.59;;;14.19;100.00
33454;BME280;39400;49.744;7.012;2023-04-28T11:13:54;95553.41;;;14.04;100.00
33454;BME280;39400;49.744;7.012;2023-04-28T11:16:24;95562.47;;;14.05;100.00
33454;BME280;39400;49.744;7.012;2023-04-28T11:18:50;95562.47;;;14.05;100.00
33454;BME280;39400;49.744;7.012;2023-04-28T11:21:16;95560.22;;;14.00;100.00
33454;BME280;39400;49.744;7.012;2023-04-28T11:23:42;95557.66;;;14.09;100.00
33454;BME280;39400;49.744;7.012;2023-04-28T11:26:08;95550.44;;;14.15;100.00
33454;BME280;39400;49.744;7.012;2023-04-28T11:28:33;95547.19;;;14.20;100.00
33454;BME280;39400;49.744;7.012;2023-04-28T11:31:11;95550.63;;;14.44;100.00
33454;BME280;39400;49.744;7.012;2023-04-28T11:33:37;95551.44;;;14.61;100.00
33454;BME280;39400;49.744;7.012;2023-04-28T11:36:04;95546.41;;;14.56;100.00
33454;BME280;39400;49.744;7.012;2023-04-28T11:38:29;95561.31;;;14.62;100.00
33454;BME280;39400;49.744;7.012;2023-04-28T11:40:57;95557.25;;;14.67;100.00
33454;BME280;39400;49.744;7.012;2023-04-28T11:43:29;95558.25;;;14.57;100.00
33454;BME280;39400;49.744;7.012;2023-04-28T11:45:54;95554.56;;;14.43;100.00
33454;BME280;39400;49.744;7.012;2023-04-28T11:48:20;95542.38;;;14.41;100.00
33454;BME280;39400;49.744;7.012;2023-04-28T11:50:46;95554.81;;;14.33;100.00
33454;BME280;39400;49.744;7.012;2023-04-28T11:53:11;95545.84;;;14.45;100.00
33454;BME280;39400;49.744;7.012;2023-04-28T11:55:36;95548.25;;;14.43;100.00
33454;BME280;39400;49.744;7.012;2023-04-28T11:58:18;95567.41;;;14.34;100.00
33454;BME280;39400;49.744;7.012;2023-04-28T12:00:44;95554.19;;;14.25;100.00
33454;BME280;39400;49.744;7.012;2023-04-28T12:03:09;95557.06;;;14.38;100.00
33454;BME280;39400;49.744;7.012;2023-04-28T12:05:43;95547.66;;;14.35;100.00
33454;BME280;39400;49.744;7.012;2023-04-28T12:08:08;95552.66;;;14.60;100.00
33454;BME280;39400;49.744;7.012;2023-04-28T12:10:34;95538.31;;;14.65;100.00
33454;BME280;39400;49.744;7.012;2023-04-28T12:13:14;95528.28;;;14.88;100.00
33454;BME280;39400;49.744;7.012;2023-04-28T12:15:39;95542.50;;;14.90;100.00
33454;BME280;39400;49.744;7.012;2023-04-28T12:18:09;95537.97;;;14.80;100.00
33454;BME280;39400;49.744;7.012;2023-04-28T12:20:37;95532.59;;;14.56;100.00
33454;BME280;39400;49.744;7.012;2023-04-28T12:23:03;95538.19;;;14.53;100.00
33454;BME280;39400;49.744;7.012;2023-04-28T12:25:28;95546.63;;;14.45;100.00
33454;BME280;39400;49.744;7.012;2023-04-28T12:30:27;95537.56;;;14.45;100.00
33454;BME280;39400;49.744;7.012;2023-04-28T12:32:53;95548.63;;;14.45;100.00
33454;BME280;39400;49.744;7.012;2023-04-28T12:35:21;95550.81;;;14.34;100.00
33454;BME280;39400;49.744;7.012;2023-04-28T12:37:47;95547.78;;;14.48;100.00
33454;BME280;39400;49.744;7.012;2023-04-28T12:40:12;95545.03;;;14.64;100.00
33454;BME280;39400;49.744;7.012;2023-04-28T12:42:38;95535.91;;;15.00;100.00
33454;BME280;39400;49.744;7.012;2023-04-28T12:45:05;95533.28;;;15.26;100.00
33454;BME280;39400;49.744;7.012;2023-04-28T12:47:31;95536.38;;;15.44;100.00
33454;BME280;39400;49.744;7.012;2023-04-28T12:49:56;95534.44;;;15.57;100.00
33454;BME280;39400;49.744;7.012;2023-04-28T12:52:21;95537.28;;;15.99;100.00
33454;BME280;39400;49.744;7.012;2023-04-28T12:54:47;95539.03;;;15.93;100.00
33454;BME280;39400;49.744;7.012;2023-04-28T12:57:14;95544.22;;;16.07;100.00
33454;BME280;39400;49.744;7.012;2023-04-28T12:59:39;95534.25;;;16.23;100.00
33454;BME280;39400;49.744;7.012;2023-04-28T13:02:05;95545.81;;;16.34;100.00
33454;BME280;39400;49.744;7.012;2023-04-28T13:04:30;95528.03;;;16.19;100.00
33454;BME280;39400;49.744;7.012;2023-04-28T13:06:57;95528.03;;;16.19;100.00
33454;BME280;39400;49.744;7.012;2023-04-28T13:09:23;95535.81;;;16.24;100.00
33454;BME280;39400;49.744;7.012;2023-04-28T13:11:49;95532.50;;;16.29;100.00